< < Back
Terminal Aerodrome Forecast


Current Version              Previous Versions:   1  2  3  4  5  6  7  8  9  

Terminal Aerodrome Forecast

593
FTUS42 KFFC 290545 CCA
TAFATL
TAF COR
KATL 290545Z 2906/3012 34003KT P6SM SKC
     FM291400 11006KT P6SM SKC
     FM291700 15007KT P6SM SKC
     FM292000 19007KT P6SM SCT050
     FM300300 17007KT P6SM BKN035
     FM301100 22010KT P6SM OVC012=

Latest METAR

263
SAUS70 KWBC 290600 RRB
MTRATL
METAR KATL 290552Z 31007KT 10SM CLR 02/M07 A3028 RMK AO2 SLP258
T00221072 10089 20022 51013


USA.gov is the U.S. government's official web portal to all federal, state and local government web resources and services.